Ashville, Pennsylvania
Current Conditions -  °F | °C
As of 7:53 PM on Friday 21 Nov 2014 (Local Time) from KAOO Reporting Station
Clear Clear  
Wind Chill: -8°   Ceiling: Unl
Heat Index: -8°   Visibility: 10mi
Dew Point: -12°   Wind: 0mph
Humidity: 74%   Direction: NA
Pressure: 30.45"   Gusts: NA
Location:  40.56°N, 78.55°W
Report Text: KAOO 220053Z AUTO 00000KT 10SM CLR M08/M12 A3045 RMK AO2 SLP338 T10781117
Loading
Personal Weather Stations






























Interactive Weather Map New forecast layout! Learn more

10-Day Weather Forecast

Advertisements
Track Severe Weather on mobile